Time;durP1;ratioP1;P1;durP2;ratioP2;P2;SDS_P1;SDS_P2;PMS_P1;PMS_P2;Temp;Humidity;BMP_temperature;BMP_pressure;BME280_temperature;BME280_humidity;BME280_pressure;Samples;Min_cycle;Max_cycle;Signal;HPM_P1;HPM_P2
2023/08/11 00:00:13;;;;;;;0.40;0.40;;;;;;;16.57;68.46;97374.16;29395;229;63005;-66
2023/08/11 00:00:50;;;;;;;0.40;0.40;;;;;;;16.56;68.25;97369.81;29395;238;63009;-54
2023/08/11 00:01:21;;;;;;;0.40;0.40;;;;;;;16.56;68.31;97371.75;29395;228;63005;-53
2023/08/11 00:01:52;;;;;;;0.40;0.40;;;;;;;16.54;68.32;97368.53;29394;227;64013;-66
2023/08/11 00:02:23;;;;;;;0.40;0.40;;;;;;;16.53;68.05;97359.50;29395;233;63005;-53
2023/08/11 00:02:55;;;;;;;0.40;0.40;;;;;;;16.53;67.95;97364.97;29394;197;64013;-66
2023/08/11 00:03:26;;;;;;;0.40;0.40;;;;;;;16.53;67.86;97364.16;29395;219;63005;-66
2023/08/11 00:03:58;;;;;;;0.40;0.40;;;;;;;16.54;68.00;97366.59;29395;245;63009;-66
2023/08/11 00:04:32;;;;;;;0.40;0.40;;;;;;;16.54;68.01;97361.09;29395;207;63004;-53
2023/08/11 00:05:05;;;;;;;0.40;0.40;;;;;;;16.54;67.41;97361.09;29395;262;63009;-66
2023/08/11 00:05:38;;;;;;;0.40;0.40;;;;;;;16.54;67.43;97366.59;29395;276;63004;-54
2023/08/11 00:06:10;;;;;;;0.40;0.40;;;;;;;16.55;67.53;97370.13;29395;225;63008;-66
2023/08/11 00:06:41;;;;;;;0.40;0.40;;;;;;;16.55;67.62;97357.25;29395;238;63013;-54
2023/08/11 00:07:12;;;;;;;0.40;0.40;;;;;;;16.55;67.28;97362.72;29395;307;63009;-65
2023/08/11 00:07:50;;;;;;;0.40;0.40;;;;;;;16.57;67.29;97363.22;29395;239;63005;-53
2023/08/11 00:08:22;;;;;;;0.40;0.40;;;;;;;16.58;67.03;97362.09;29394;197;64014;-66
2023/08/11 00:08:53;;;;;;;0.40;0.40;;;;;;;16.59;66.96;97363.69;29395;207;63005;-65
2023/08/11 00:09:26;;;;;;;0.32;0.32;;;;;;;16.60;66.86;97368.06;29395;246;63009;-53
2023/08/11 00:09:57;;;;;;;0.40;0.40;;;;;;;16.61;66.85;97364.19;29395;225;63005;-53
2023/08/11 00:10:29;;;;;;;0.40;0.40;;;;;;;16.63;66.64;97358.38;29395;237;63009;-54
2023/08/11 00:11:00;;;;;;;0.40;0.40;;;;;;;16.63;66.82;97361.91;29395;203;63005;-55
2023/08/11 00:11:31;;;;;;;0.40;0.40;;;;;;;16.65;66.72;97361.63;29395;235;63009;-54
2023/08/11 00:12:04;;;;;;;0.40;0.40;;;;;;;16.65;66.83;97356.94;29395;218;63004;-54
2023/08/11 00:12:35;;;;;;;0.40;0.40;;;;;;;16.66;66.49;97361.31;29395;196;63009;-64
2023/08/11 00:13:08;;;;;;;0.40;0.40;;;;;;;16.67;66.38;97353.88;29395;243;63004;-54
2023/08/11 00:13:40;;;;;;;0.40;0.40;;;;;;;16.68;66.37;97361.78;29394;222;64013;-53
2023/08/11 00:14:13;;;;;;;0.40;0.40;;;;;;;16.70;66.29;97356.78;29395;201;63008;-54
2023/08/11 00:14:44;;;;;;;0.40;0.40;;;;;;;16.71;66.05;97358.41;29395;200;63009;-66
2023/08/11 00:15:16;;;;;;;0.30;0.30;;;;;;;16.72;66.15;97360.03;29395;244;63005;-53
2023/08/11 00:15:48;;;;;;;0.40;0.40;;;;;;;16.73;66.20;97358.09;29395;228;63022;-53
2023/08/11 00:16:19;;;;;;;0.40;0.40;;;;;;;16.72;66.23;97357.28;29395;237;63005;-54
2023/08/11 00:16:51;;;;;;;0.40;0.40;;;;;;;16.73;66.08;97364.37;29395;226;63009;-54
2023/08/11 00:17:22;;;;;;;0.40;0.40;;;;;;;16.75;66.09;97355.84;29395;203;63005;-64
2023/08/11 00:17:59;;;;;;;1.08;1.08;;;;;;;16.75;65.84;97362.13;29395;240;63009;-66
2023/08/11 00:18:31;;;;;;;0.40;0.40;;;;;;;16.76;65.55;97354.72;29395;224;63004;-54
2023/08/11 00:19:03;;;;;;;0.40;0.40;;;;;;;16.76;65.55;97357.44;29394;298;64030;-54
2023/08/11 00:19:35;;;;;;;0.40;0.40;;;;;;;16.80;65.36;97357.63;29395;229;63004;-54
2023/08/11 00:20:08;;;;;;;0.40;0.40;;;;;;;16.81;65.26;97359.22;29395;287;63023;-54
2023/08/11 00:20:40;;;;;;;0.40;0.40;;;;;;;16.82;65.39;97361.66;29395;226;63004;-54
2023/08/11 00:21:14;;;;;;;0.40;0.40;;;;;;;16.83;65.08;97356.97;29395;227;63008;-54
2023/08/11 00:21:46;;;;;;;0.40;0.40;;;;;;;16.83;65.12;97351.50;29395;242;63004;-53
2023/08/11 00:22:17;;;;;;;0.40;0.40;;;;;;;16.84;64.86;97353.09;29395;211;63009;-65
2023/08/11 00:22:48;;;;;;;0.40;0.40;;;;;;;16.83;65.23;97356.97;29395;230;63005;-65
2023/08/11 00:23:19;;;;;;;0.40;0.40;;;;;;;16.83;65.43;97356.97;29394;197;64013;-54
2023/08/11 00:23:50;;;;;;;0.40;0.40;;;;;;;16.82;65.66;97355.38;29395;246;63005;-54
2023/08/11 00:24:22;;;;;;;0.40;0.40;;;;;;;16.82;65.62;97355.38;29395;290;63005;-65
2023/08/11 00:24:53;;;;;;;0.30;0.30;;;;;;;16.81;65.76;97364.72;29395;243;63005;-65
2023/08/11 00:25:24;;;;;;;0.40;0.40;;;;;;;16.80;65.69;97363.91;29395;267;63009;-54
2023/08/11 00:25:55;;;;;;;0.40;0.40;;;;;;;16.79;65.80;97351.31;29395;222;63004;-53
2023/08/11 00:26:26;;;;;;;0.40;0.40;;;;;;;16.79;65.93;97358.75;29395;210;63009;-65
2023/08/11 00:26:58;;;;;;;0.40;0.40;;;;;;;16.77;65.91;97358.25;29395;227;63004;-54
2023/08/11 00:27:29;;;;;;;0.40;0.40;;;;;;;16.75;65.85;97356.66;29394;215;64013;-54
2023/08/11 00:28:03;;;;;;;0.40;0.40;;;;;;;16.75;65.88;97359.38;29395;243;63004;-53
2023/08/11 00:28:35;;;;;;;0.40;0.40;;;;;;;16.73;65.75;97361.63;29395;226;63008;-65
2023/08/11 00:29:06;;;;;;;0.40;0.40;;;;;;;16.72;65.45;97356.47;29395;197;63005;-54
2023/08/11 00:29:38;;;;;;;0.40;0.40;;;;;;;16.70;67.01;97365.00;29395;215;63019;-65
2023/08/11 00:30:11;;;;;;;0.40;0.40;;;;;;;16.66;66.57;97358.56;29395;237;63005;-65
2023/08/11 00:30:42;;;;;;;0.40;0.40;;;;;;;16.64;66.68;97366.28;29395;240;63018;-65
2023/08/11 00:31:14;;;;;;;0.40;0.40;;;;;;;16.61;67.11;97360.66;29394;233;64000;-64
2023/08/11 00:31:46;;;;;;;0.40;0.40;;;;;;;16.58;67.02;97367.56;29395;234;63009;-66
2023/08/11 00:32:17;;;;;;;0.50;0.50;;;;;;;16.56;66.92;97364.34;29395;221;63005;-66
2023/08/11 00:32:49;;;;;;;0.45;0.45;;;;;;;16.56;67.20;97366.28;29395;229;63009;-53
2023/08/11 00:33:21;;;;;;;0.45;0.45;;;;;;;16.55;67.49;97368.19;29395;254;63004;-66
2023/08/11 00:33:53;;;;;;;0.40;0.40;;;;;;;16.54;67.58;97361.09;29394;209;64009;-65
2023/08/11 00:34:24;;;;;;;0.50;0.50;;;;;;;16.53;67.95;97367.72;29395;237;63004;-66
2023/08/11 00:34:55;;;;;;;0.40;0.40;;;;;;;16.52;67.88;97368.84;29395;202;63009;-65
2023/08/11 00:35:27;;;;;;;0.40;0.40;;;;;;;16.50;68.08;97360.12;29395;221;63004;-65
2023/08/11 00:35:58;;;;;;;0.40;0.40;;;;;;;16.49;68.00;97368.66;29395;253;63008;-66
2023/08/11 00:36:30;;;;;;;0.40;0.40;;;;;;;16.47;67.78;97363.50;29394;225;64009;-65
2023/08/11 00:37:01;;;;;;;0.40;0.40;;;;;;;16.45;68.02;97365.75;29395;251;63009;-66
2023/08/11 00:37:32;;;;;;;0.32;0.32;;;;;;;16.44;68.47;97369.63;29395;213;63005;-53
2023/08/11 00:38:04;;;;;;;0.40;0.40;;;;;;;16.43;68.42;97370.75;29395;212;63009;-65
2023/08/11 00:38:42;;;;;;;0.40;0.40;;;;;;;16.41;68.40;97368.31;29395;224;63014;-54
2023/08/11 00:39:16;;;;;;;0.40;0.40;;;;;;;16.41;68.47;97373.00;29395;303;63009;-54
2023/08/11 00:39:47;;;;;;;0.40;0.40;;;;;;;16.40;68.51;97371.37;29394;215;64005;-66
2023/08/11 00:40:19;;;;;;;0.30;0.30;;;;;;;16.39;68.64;97372.50;29395;215;63020;-54
2023/08/11 00:40:51;;;;;;;0.40;0.40;;;;;;;16.38;69.11;97371.69;29395;249;63004;-54
2023/08/11 00:41:23;;;;;;;0.40;0.40;;;;;;;16.37;69.03;97370.09;29394;229;64013;-66
2023/08/11 00:41:55;;;;;;;0.40;0.40;;;;;;;16.35;69.32;97366.03;29395;276;63004;-65
2023/08/11 00:42:26;;;;;;;0.40;0.40;;;;;;;16.35;68.69;97369.59;29395;221;63009;-67
2023/08/11 00:42:58;;;;;;;0.40;0.40;;;;;;;16.34;68.86;97367.97;29395;222;63004;-65
2023/08/11 00:43:29;;;;;;;0.40;0.40;;;;;;;16.34;68.15;97364.44;29395;222;63008;-65
2023/08/11 00:44:04;;;;;;;0.40;0.40;;;;;;;16.32;69.14;97363.94;29395;240;63005;-54
2023/08/11 00:44:35;;;;;;;0.40;0.40;;;;;;;16.31;68.40;97367.81;29395;220;63009;-65
2023/08/11 00:45:07;;;;;;;0.40;0.40;;;;;;;16.30;69.04;97367.00;29395;219;63005;-65
2023/08/11 00:45:45;;;;;;;0.40;0.40;;;;;;;16.29;68.99;97370.84;29395;225;63009;-66
2023/08/11 00:46:20;;;;;;;0.40;0.40;;;;;;;16.28;69.09;97368.47;29394;209;64009;-64
2023/08/11 00:46:52;;;;;;;0.40;0.40;;;;;;;16.27;69.01;97370.41;29395;220;63020;-54
2023/08/11 00:47:23;;;;;;;0.40;0.40;;;;;;;16.26;70.14;97365.25;29395;196;63005;-54
2023/08/11 00:47:56;;;;;;;0.40;0.40;;;;;;;16.24;70.61;97372.97;29394;205;64013;-54
2023/08/11 00:48:28;;;;;;;0.40;0.40;;;;;;;16.21;71.35;97374.41;29395;218;63004;-64
2023/08/11 00:49:00;;;;;;;0.40;0.40;;;;;;;16.20;71.17;97377.47;29395;227;63009;-65
2023/08/11 00:49:34;;;;;;;0.40;0.40;;;;;;;16.16;71.21;97371.00;29395;241;63004;-54
2023/08/11 00:50:07;;;;;;;0.40;0.40;;;;;;;16.14;70.68;97367.78;29395;222;63009;-53
2023/08/11 00:50:41;;;;;;;0.40;0.40;;;;;;;16.13;70.73;97366.97;29395;198;63004;-65
2023/08/11 00:51:15;;;;;;;0.40;0.40;;;;;;;16.13;71.08;97369.69;29395;221;63008;-64
2023/08/11 00:51:47;;;;;;;0.40;0.40;;;;;;;16.14;71.21;97367.78;29395;250;63005;-65
2023/08/11 00:52:19;;;;;;;0.40;0.40;;;;;;;16.13;71.60;97366.97;29394;203;64014;-65
2023/08/11 00:52:51;;;;;;;0.40;0.40;;;;;;;16.13;71.42;97368.88;29395;205;63006;-66
2023/08/11 00:53:22;;;;;;;0.40;0.40;;;;;;;16.14;70.90;97365.03;29395;260;63018;-66
2023/08/11 00:53:55;;;;;;;0.40;0.40;;;;;;;16.12;71.54;97364.53;29395;212;63018;-65
2023/08/11 00:54:28;;;;;;;0.40;0.40;;;;;;;16.12;70.78;97364.53;29395;248;63005;-64
2023/08/11 00:54:59;;;;;;;0.40;0.40;;;;;;;16.11;70.83;97363.72;29395;268;63008;-66
2023/08/11 00:55:32;;;;;;;0.40;0.40;;;;;;;16.11;70.67;97362.94;29395;218;63009;-64
2023/08/11 00:56:05;;;;;;;0.40;0.40;;;;;;;16.11;70.92;97357.44;29395;263;63004;-54
2023/08/11 00:56:44;;;;;;;0.40;0.40;;;;;;;16.09;70.92;97355.84;29395;230;63009;-54
2023/08/11 00:57:18;;;;;;;0.40;0.40;;;;;;;16.10;70.99;97367.59;29394;204;64004;-53
2023/08/11 00:57:50;;;;;;;0.40;0.40;;;;;;;16.08;71.24;97362.44;29394;258;64013;-66
2023/08/11 00:58:25;;;;;;;0.37;0.37;;;;;;;16.09;70.91;97357.75;29395;224;63004;-65
2023/08/11 00:58:57;;;;;;;0.40;0.40;;;;;;;16.08;71.00;97359.69;29395;277;63009;-54
2023/08/11 00:59:29;;;;;;;0.40;0.40;;;;;;;16.08;71.03;97359.69;29395;269;63005;-65
2023/08/11 01:00:11;;;;;;;0.50;0.50;;;;;;;16.08;70.95;97359.69;29395;217;63009;-65
2023/08/11 01:00:44;;;;;;;0.40;0.40;;;;;;;16.08;70.92;97365.16;29395;218;63005;-64
2023/08/11 01:01:16;;;;;;;0.40;0.40;;;;;;;16.07;70.93;97363.56;29395;229;63026;-64
2023/08/11 01:01:48;;;;;;;0.40;0.40;;;;;;;16.08;70.87;97364.37;29395;213;63005;-66
2023/08/11 01:02:20;;;;;;;0.40;0.40;;;;;;;16.07;70.81;97354.53;29395;306;63025;-64
2023/08/11 01:02:51;;;;;;;0.40;0.40;;;;;;;16.06;70.82;97356.47;29394;234;64009;-65
2023/08/11 01:03:25;;;;;;;0.40;0.40;;;;;;;16.05;70.87;97357.59;29395;250;63009;-54
2023/08/11 01:04:00;;;;;;;0.40;0.40;;;;;;;16.04;71.14;97364.19;29395;239;63004;-65
2023/08/11 01:04:31;;;;;;;0.40;0.40;;;;;;;16.04;70.83;97361.44;29395;208;63009;-54
2023/08/11 01:05:04;;;;;;;0.40;0.40;;;;;;;16.03;70.83;97362.56;29395;215;63004;-65
2023/08/11 01:05:43;;;;;;;0.50;0.50;;;;;;;16.02;70.83;97366.44;29395;222;63018;-65
2023/08/11 01:06:49;;;;;;;0.40;0.40;;;;;;;16.01;71.11;97362.06;29395;223;63004;-64
2023/08/11 01:07:31;;;;;;;0.50;0.50;;;;;;;16.00;71.04;97356.91;29394;274;64014;-65
2023/08/11 01:08:24;;;;;;;0.40;0.40;;;;;;;16.00;71.01;97368.69;29395;205;63012;-54
2023/08/11 01:09:37;;;;;;;0.40;0.40;;;;;;;15.99;71.03;97367.06;29394;229;64013;-54
2023/08/11 01:10:45;;;;;;;0.50;0.50;;;;;;;15.97;70.91;97369.31;29395;278;63005;-54
2023/08/11 01:11:49;;;;;;;0.50;0.50;;;;;;;15.96;71.19;97361.41;29395;218;63009;-64
2023/08/11 01:12:46;;;;;;;0.50;0.50;;;;;;;15.95;71.34;97366.06;29396;224;63004;-65
2023/08/11 01:13:21;;;;;;;0.50;0.50;;;;;;;15.95;71.04;97366.06;29396;329;63008;-53
2023/08/11 01:14:02;;;;;;;0.45;0.45;;;;;;;15.94;70.96;97369.94;29395;210;64008;-54
2023/08/11 01:14:56;;;;;;;;;;;;;;;15.94;70.89;97369.16;29997;982;6005;-64
2023/08/11 01:15:34;;;;;;;0.50;0.50;;;;;;;15.92;71.30;97371.41;29401;230;63009;-54
2023/08/11 01:16:07;;;;;;;0.40;0.40;;;;;;;15.90;70.91;97368.97;29395;196;64009;-65
2023/08/11 01:16:49;;;;;;;0.40;0.40;;;;;;;15.90;70.52;97363.50;29395;207;64013;-64
2023/08/11 01:17:21;;;;;;;0.50;0.50;;;;;;;15.87;70.50;97369.59;29396;207;63005;-55
2023/08/11 01:17:53;;;;;;;0.40;0.40;;;;;;;15.85;71.11;97371.84;29396;249;63009;-54
2023/08/11 01:18:26;;;;;;;0.50;0.50;;;;;;;15.85;70.76;97371.03;29396;258;63004;-65
2023/08/11 01:18:59;;;;;;;0.40;0.40;;;;;;;15.83;71.23;97367.81;29396;202;63009;-54
2023/08/11 01:19:35;;;;;;;0.40;0.40;;;;;;;15.82;70.67;97367.00;29396;199;63004;-54
2023/08/11 01:20:15;;;;;;;0.50;0.50;;;;;;;15.81;71.43;97370.84;29396;234;63009;-65
2023/08/11 01:20:52;;;;;;;0.40;0.40;;;;;;;15.81;71.16;97370.06;29418;202;63004;-65
2023/08/11 01:21:39;;;;;;;0.40;0.40;;;;;;;15.80;71.63;97374.72;29396;245;63028;-65
2023/08/11 01:22:18;;;;;;;0.40;0.40;;;;;;;15.78;71.47;97366.00;29395;210;64009;-65
2023/08/11 01:22:57;;;;;;;0.50;0.50;;;;;;;15.78;71.77;97368.75;29395;224;64014;-66
2023/08/11 01:23:28;;;;;;;0.47;0.47;;;;;;;15.76;71.72;97365.53;29396;210;63005;-65
2023/08/11 01:24:01;;;;;;;0.40;0.40;;;;;;;15.77;72.06;97374.53;29395;204;64013;-54
2023/08/11 01:24:34;;;;;;;0.50;0.50;;;;;;;15.75;71.89;97369.38;29396;232;63005;-64
2023/08/11 01:25:08;;;;;;;0.50;0.50;;;;;;;15.75;71.69;97372.13;29396;205;63016;-55
2023/08/11 01:25:40;;;;;;;0.50;0.50;;;;;;;15.74;71.71;97373.22;29396;227;63004;-66
2023/08/11 01:26:12;;;;;;;0.40;0.40;;;;;;;15.74;71.76;97373.22;29396;289;63009;-65
2023/08/11 01:26:44;;;;;;;0.43;0.43;;;;;;;15.73;71.75;97369.69;29396;220;63004;-65
2023/08/11 01:27:16;;;;;;;0.47;0.47;;;;;;;15.74;71.81;97371.31;29395;218;64009;-65
2023/08/11 01:27:57;;;;;;;0.40;0.40;;;;;;;15.74;72.05;97375.97;29395;227;64008;-65
2023/08/11 01:28:47;;;;;;;0.40;0.40;;;;;;;15.75;72.34;97372.13;29396;238;63008;-54
2023/08/11 01:29:19;;;;;;;0.40;0.40;;;;;;;15.75;71.81;97374.84;29396;302;63005;-66
2023/08/11 01:29:50;;;;;;;0.40;0.40;;;;;;;15.75;72.00;97383.06;29396;379;63009;-55
2023/08/11 01:30:24;;;;;;;0.45;0.45;;;;;;;15.76;71.05;97379.19;29396;213;63005;-54
2023/08/11 01:30:55;;;;;;;0.50;0.50;;;;;;;15.78;71.43;97381.63;29396;289;63017;-65
2023/08/11 01:31:26;;;;;;;0.40;0.40;;;;;;;15.77;71.40;97380.81;29396;369;63005;-65
2023/08/11 01:31:58;;;;;;;0.50;0.50;;;;;;;15.79;71.51;97383.25;29396;200;63021;-54
2023/08/11 01:32:29;;;;;;;0.50;0.50;;;;;;;15.80;71.58;97382.94;29395;202;64001;-54
2023/08/11 01:33:01;;;;;;;0.50;0.50;;;;;;;15.80;71.43;97382.13;29395;224;64013;-54
2023/08/11 01:33:33;;;;;;;0.45;0.45;;;;;;;15.81;70.95;97384.53;29396;215;63004;-53
2023/08/11 01:34:04;;;;;;;0.50;0.50;;;;;;;15.81;71.27;97387.28;29395;220;64013;-54
2023/08/11 01:34:36;;;;;;;0.50;0.50;;;;;;;15.81;71.05;97381.81;29396;226;63004;-66
2023/08/11 01:35:09;;;;;;;0.40;0.40;;;;;;;15.82;71.38;97382.62;29396;197;63008;-54
2023/08/11 01:35:40;;;;;;;0.45;0.45;;;;;;;15.81;71.28;97387.28;29396;218;63004;-65
2023/08/11 01:36:11;;;;;;;0.40;0.40;;;;;;;15.82;70.95;97383.41;29396;197;63009;-54
2023/08/11 01:36:43;;;;;;;0.40;0.40;;;;;;;15.83;71.39;97378.75;29396;218;63005;-53
2023/08/11 01:37:14;;;;;;;0.50;0.50;;;;;;;15.84;71.29;97380.38;29396;219;63009;-54
2023/08/11 01:37:47;;;;;;;0.50;0.50;;;;;;;15.84;71.33;97375.72;29396;230;63005;-54
2023/08/11 01:38:18;;;;;;;0.40;0.40;;;;;;;15.86;71.69;97384.41;29396;200;63009;-65
2023/08/11 01:38:49;;;;;;;0.50;0.50;;;;;;;15.89;71.33;97383.78;29395;198;64009;-65
2023/08/11 01:39:21;;;;;;;0.50;0.50;;;;;;;15.92;70.82;97387.81;29396;310;63009;-53
2023/08/11 01:39:53;;;;;;;0.40;0.40;;;;;;;15.92;70.54;97388.63;29396;210;63005;-65
2023/08/11 01:40:26;;;;;;;0.40;0.40;;;;;;;15.91;70.67;97376.06;29396;209;63014;-64
2023/08/11 01:41:01;;;;;;;0.43;0.43;;;;;;;15.92;70.50;97383.16;29396;196;63004;-54
2023/08/11 01:41:34;;;;;;;0.40;0.40;;;;;;;15.90;71.07;97385.41;29396;224;63009;-54
2023/08/11 01:42:05;;;;;;;0.40;0.40;;;;;;;15.89;70.95;97377.50;29396;317;63016;-64
2023/08/11 01:42:42;;;;;;;0.50;0.50;;;;;;;15.87;71.35;97386.03;29396;223;63008;-53
2023/08/11 01:43:16;;;;;;;0.50;0.50;;;;;;;15.85;71.00;97382.78;29396;205;63004;-65
2023/08/11 01:43:50;;;;;;;0.40;0.40;;;;;;;15.86;71.15;97389.06;29395;213;64014;-67
2023/08/11 01:44:23;;;;;;;0.50;0.50;;;;;;;15.85;71.29;97379.25;29396;322;63005;-53
2023/08/11 01:44:54;;;;;;;0.40;0.40;;;;;;;15.84;71.89;97381.19;29396;202;63009;-53
2023/08/11 01:45:27;;;;;;;0.50;0.50;;;;;;;15.83;71.73;97385.03;29396;230;63014;-54
2023/08/11 01:45:59;;;;;;;0.40;0.40;;;;;;;15.79;71.98;97384.03;29396;224;63009;-54
2023/08/11 01:46:31;;;;;;;0.43;0.43;;;;;;;15.78;71.74;97382.44;29396;201;63005;-65
2023/08/11 01:47:04;;;;;;;0.47;0.47;;;;;;;15.77;72.23;97394.50;29396;251;63017;-54
2023/08/11 01:47:44;;;;;;;0.45;0.45;;;;;;;15.76;72.96;97384.66;29396;200;63017;-54
2023/08/11 01:48:19;;;;;;;0.40;0.40;;;;;;;15.74;73.17;97387.72;29395;202;64013;-53
2023/08/11 01:48:52;;;;;;;0.40;0.40;;;;;;;15.72;73.46;97389.16;29396;224;63004;-66
2023/08/11 01:49:26;;;;;;;0.40;0.40;;;;;;;15.67;74.26;97392.00;29396;224;63009;-54
2023/08/11 01:50:00;;;;;;;0.50;0.50;;;;;;;15.63;74.11;97391.03;29396;208;63004;-64
2023/08/11 01:50:34;;;;;;;0.50;0.50;;;;;;;15.59;74.11;97392.81;29396;198;63008;-65
2023/08/11 01:51:07;;;;;;;0.50;0.50;;;;;;;15.57;73.67;97384.09;29396;200;63005;-52
2023/08/11 01:51:42;;;;;;;0.40;0.40;;;;;;;15.58;73.66;97389.25;29396;207;63005;-64
2023/08/11 01:52:14;;;;;;;0.40;0.40;;;;;;;15.58;73.27;97388.44;29396;202;63005;-64
2023/08/11 01:52:47;;;;;;;0.50;0.50;;;;;;;15.57;73.52;97382.16;29395;265;64013;-65
2023/08/11 01:53:18;;;;;;;0.40;0.40;;;;;;;15.57;73.43;97387.63;29396;222;63005;-66
2023/08/11 01:53:51;;;;;;;0.40;0.40;;;;;;;15.56;73.97;97385.19;29395;207;64009;-54
2023/08/11 01:54:23;;;;;;;0.40;0.40;;;;;;;15.57;73.67;97386.84;29396;219;63011;-54
2023/08/11 01:54:55;;;;;;;0.40;0.40;;;;;;;15.56;74.12;97385.19;29396;214;63017;-53
2023/08/11 01:55:28;;;;;;;0.45;0.45;;;;;;;15.57;73.94;97378.63;29397;248;63010;-53
2023/08/11 01:56:01;;;;;;;0.40;0.40;;;;;;;15.57;74.15;97381.38;29397;213;63009;-54
2023/08/11 01:56:32;;;;;;;0.50;0.50;;;;;;;15.56;73.96;97387.91;29397;214;63004;-65
2023/08/11 01:57:05;;;;;;;0.77;0.77;;;;;;;15.54;74.05;97376.47;29396;196;64013;-65
2023/08/11 01:57:38;;;;;;;0.40;0.40;;;;;;;15.53;73.83;97381.16;29397;239;63004;-54
2023/08/11 01:58:10;;;;;;;0.45;0.45;;;;;;;15.52;74.93;97381.47;29397;218;63008;-65
2023/08/11 01:58:41;;;;;;;0.40;0.40;;;;;;;15.48;73.96;97378.53;29397;207;63005;-64
2023/08/11 01:59:14;;;;;;;0.40;0.40;;;;;;;15.48;74.68;97378.53;29397;347;63009;-66
2023/08/11 01:59:47;;;;;;;0.40;0.40;;;;;;;15.48;74.34;97375.00;29397;302;63005;-54
2023/08/11 02:00:22;;;;;;;0.40;0.40;;;;;;;15.48;74.69;97377.72;29397;230;63009;-54
2023/08/11 02:00:54;;;;;;;0.40;0.40;;;;;;;15.46;74.79;97382.69;29397;275;63008;-53
2023/08/11 02:01:25;;;;;;;0.40;0.40;;;;;;;15.44;75.23;97374.81;29397;203;63009;-53
2023/08/11 02:01:57;;;;;;;0.40;0.40;;;;;;;15.41;75.42;97369.97;29396;342;64009;-54
2023/08/11 02:02:29;;;;;;;0.40;0.40;;;;;;;15.40;74.96;97371.87;29397;206;63009;-54
2023/08/11 02:03:01;;;;;;;0.40;0.40;;;;;;;15.40;74.76;97371.06;29397;216;63004;-54
2023/08/11 02:03:33;;;;;;;0.45;0.45;;;;;;;15.41;75.02;97372.69;29396;275;64013;-52
2023/08/11 02:04:05;;;;;;;0.40;0.40;;;;;;;15.41;74.81;97373.50;29396;226;64009;-53
2023/08/11 02:04:38;;;;;;;0.40;0.40;;;;;;;15.40;75.25;97376.53;29397;228;63009;-53
2023/08/11 02:05:11;;;;;;;0.40;0.40;;;;;;;15.39;75.00;97370.28;29397;210;63004;-52
2023/08/11 02:05:43;;;;;;;0.40;0.40;;;;;;;15.39;74.97;97364.00;29397;213;63022;-52
2023/08/11 02:06:15;;;;;;;0.40;0.40;;;;;;;15.39;74.81;97367.53;29396;203;64009;-61
2023/08/11 02:06:46;;;;;;;0.40;0.40;;;;;;;15.38;75.00;97363.19;29397;236;63017;-52
2023/08/11 02:07:17;;;;;;;0.50;0.50;;;;;;;15.37;75.12;97369.78;29396;211;64009;-63
2023/08/11 02:07:49;;;;;;;0.50;0.50;;;;;;;15.36;75.32;97364.63;29397;239;63009;-64
2023/08/11 02:08:20;;;;;;;0.45;0.45;;;;;;;15.34;75.52;97373.13;29397;220;63005;-53
2023/08/11 02:08:52;;;;;;;0.50;0.50;;;;;;;15.34;75.92;97367.66;29397;226;63009;-53
2023/08/11 02:09:24;;;;;;;0.47;0.47;;;;;;;15.33;77.02;97376.97;29396;196;63005;-64
2023/08/11 02:09:56;;;;;;;0.50;0.50;;;;;;;15.30;77.09;97372.13;29396;354;63009;-54
2023/08/11 02:10:27;;;;;;;0.40;0.40;;;;;;;15.29;76.84;97375.97;29396;196;63008;-64
2023/08/11 02:10:59;;;;;;;0.50;0.50;;;;;;;15.28;76.91;97377.09;29396;229;63020;-53
2023/08/11 02:11:31;;;;;;;0.50;0.50;;;;;;;15.26;75.98;97371.13;29396;275;63004;-53
2023/08/11 02:12:02;;;;;;;0.40;0.40;;;;;;;15.28;76.62;97373.56;29395;238;64013;-54
2023/08/11 02:12:37;;;;;;;0.50;0.50;;;;;;;15.27;76.72;97378.22;29396;202;63004;-53
2023/08/11 02:13:09;;;;;;;0.50;0.50;;;;;;;15.27;76.94;97375.50;29396;196;63008;-53
2023/08/11 02:13:40;;;;;;;0.40;0.40;;;;;;;15.26;77.14;97375.78;29395;214;64009;-64
2023/08/11 02:14:13;;;;;;;0.40;0.40;;;;;;;15.25;76.88;97369.53;29396;314;63009;-53
2023/08/11 02:14:44;;;;;;;1.02;1.02;;;;;;;15.24;77.44;97373.41;29396;214;63005;-53
2023/08/11 02:15:15;;;;;;;0.40;0.40;;;;;;;15.21;77.96;97373.22;29396;197;63009;-53
2023/08/11 02:15:47;;;;;;;0.40;0.40;;;;;;;15.19;77.09;97369.97;29396;210;63000;-64
2023/08/11 02:16:18;;;;;;;0.50;0.50;;;;;;;15.18;77.31;97374.62;29395;197;64013;-53
2023/08/11 02:16:50;;;;;;;0.50;0.50;;;;;;;15.18;77.40;97371.91;29396;208;63005;-64
2023/08/11 02:17:21;;;;;;;0.50;0.50;;;;;;;15.16;78.28;97371.41;29396;223;63009;-64
2023/08/11 02:17:53;;;;;;;0.47;0.47;;;;;;;15.14;77.98;97362.72;29396;251;63004;-54
2023/08/11 02:18:28;;;;;;;0.40;0.40;;;;;;;15.14;78.03;97362.72;29396;230;63009;-53
2023/08/11 02:18:59;;;;;;;0.50;0.50;;;;;;;15.12;78.03;97370.41;29396;219;63004;-65
2023/08/11 02:19:30;;;;;;;0.50;0.50;;;;;;;15.12;77.58;97366.88;29396;229;63009;-64
2023/08/11 02:20:16;;;;;;;0.50;0.50;;;;;;;15.11;77.60;97370.72;29396;256;64004;-65
2023/08/11 02:20:51;;;;;;;0.40;0.40;;;;;;;15.10;78.14;97367.19;29396;279;63008;-53
2023/08/11 02:21:23;;;;;;;0.50;0.50;;;;;;;15.10;77.66;97369.91;29395;209;64009;-52
2023/08/11 02:21:55;;;;;;;0.40;0.40;;;;;;;15.06;77.86;97364.25;29396;203;63009;-53
2023/08/11 02:22:27;;;;;;;0.43;0.43;;;;;;;15.11;78.45;97373.44;29396;202;63005;-64
2023/08/11 02:22:58;;;;;;;0.40;0.40;;;;;;;15.10;78.49;97372.66;29395;274;64013;-65
2023/08/11 02:23:30;;;;;;;0.40;0.40;;;;;;;15.09;77.98;97371.84;29396;243;63005;-64
2023/08/11 02:24:02;;;;;;;0.40;0.40;;;;;;;15.09;78.21;97376.50;29396;210;63013;-65
2023/08/11 02:24:35;;;;;;;0.40;0.40;;;;;;;15.08;78.07;97375.69;29396;219;63005;-53
2023/08/11 02:25:09;;;;;;;0.40;0.40;;;;;;;15.08;78.18;97372.16;29396;223;63009;-52
2023/08/11 02:25:42;;;;;;;0.40;0.40;;;;;;;15.08;78.25;97363.94;29396;202;63004;-53
2023/08/11 02:26:14;;;;;;;0.40;0.40;;;;;;;15.09;78.74;97376.50;29395;202;64013;-53
2023/08/11 02:26:50;;;;;;;0.40;0.40;;;;;;;15.09;78.24;97371.84;29395;384;64009;-53
2023/08/11 02:27:22;;;;;;;0.50;0.50;;;;;;;15.09;78.31;97371.03;29396;391;63009;-53
2023/08/11 02:27:53;;;;;;;0.43;0.43;;;;;;;15.09;78.49;97371.84;29396;217;63004;-53
2023/08/11 02:28:25;;;;;;;0.47;0.47;;;;;;;15.10;78.23;97372.66;29396;229;63008;-53
2023/08/11 02:28:56;;;;;;;0.40;0.40;;;;;;;15.10;78.27;97372.66;29396;302;63016;-54
2023/08/11 02:29:28;;;;;;;0.40;0.40;;;;;;;15.11;78.08;97373.44;29396;197;63009;-53
2023/08/11 02:29:59;;;;;;;0.40;0.40;;;;;;;15.11;78.19;97374.25;29395;234;64009;-53
2023/08/11 02:30:31;;;;;;;0.40;0.40;;;;;;;15.11;77.98;97368.78;29396;387;63009;-53
2023/08/11 02:31:03;;;;;;;0.40;0.40;;;;;;;15.12;77.81;97358.66;29396;213;63005;-65
2023/08/11 02:31:35;;;;;;;0.40;0.40;;;;;;;15.12;78.11;97364.13;29396;209;63009;-54
2023/08/11 02:32:07;;;;;;;0.40;0.40;;;;;;;15.11;77.80;97366.06;29396;208;63004;-65
2023/08/11 02:32:42;;;;;;;0.40;0.40;;;;;;;15.10;77.78;97361.72;29396;238;63009;-65
2023/08/11 02:33:13;;;;;;;0.50;0.50;;;;;;;15.11;77.74;97368.78;29396;210;63004;-53
2023/08/11 02:33:44;;;;;;;0.40;0.40;;;;;;;15.12;77.88;97364.94;29396;210;63026;-53
2023/08/11 02:34:16;;;;;;;0.50;0.50;;;;;;;15.12;77.85;97367.69;29396;326;63004;-53
2023/08/11 02:34:47;;;;;;;0.50;0.50;;;;;;;15.12;78.01;97364.94;29396;202;63008;-66
2023/08/11 02:35:21;;;;;;;0.50;0.50;;;;;;;15.13;77.94;97372.03;29395;230;64008;-53
2023/08/11 02:35:52;;;;;;;0.40;0.40;;;;;;;15.13;78.01;97369.28;29396;203;63008;-53
2023/08/11 02:36:24;;;;;;;0.50;0.50;;;;;;;15.13;77.71;97361.09;29396;203;63005;-53
2023/08/11 02:36:55;;;;;;;0.50;0.50;;;;;;;15.15;78.07;97368.97;29396;265;63009;-65
2023/08/11 02:37:26;;;;;;;0.50;0.50;;;;;;;15.13;78.11;97363.81;29396;205;63005;-54
2023/08/11 02:38:00;;;;;;;0.40;0.40;;;;;;;15.13;78.01;97368.47;29396;315;63009;-63
2023/08/11 02:38:33;;;;;;;0.40;0.40;;;;;;;15.11;78.04;97374.25;29396;273;63010;-63
2023/08/11 02:39:08;;;;;;;0.50;0.50;;;;;;;15.13;78.56;97365.75;29396;198;63009;-64
2023/08/11 02:39:39;;;;;;;0.50;0.50;;;;;;;15.12;78.68;97370.41;29396;218;63004;-64